sensor_id;sensor_type;location;lat;lon;timestamp;P1;durP1;ratioP1;P2;durP2;ratioP2
20207;SDS011;10263;48.716;8.760;2023-11-22T00:00:44;6.60;;;4.60;;
20207;SDS011;10263;48.716;8.760;2023-11-22T00:03:12;7.30;;;4.67;;
20207;SDS011;10263;48.716;8.760;2023-11-22T00:05:40;8.73;;;5.57;;
20207;SDS011;10263;48.716;8.760;2023-11-22T00:08:06;7.37;;;4.30;;
20207;SDS011;10263;48.716;8.760;2023-11-22T00:10:33;8.10;;;4.83;;
20207;SDS011;10263;48.716;8.760;2023-11-22T00:13:00;6.90;;;4.90;;
20207;SDS011;10263;48.716;8.760;2023-11-22T00:15:27;6.60;;;4.90;;
20207;SDS011;10263;48.716;8.760;2023-11-22T00:17:54;5.90;;;4.23;;
20207;SDS011;10263;48.716;8.760;2023-11-22T00:20:22;7.93;;;4.33;;
20207;SDS011;10263;48.716;8.760;2023-11-22T00:22:51;8.17;;;4.30;;
20207;SDS011;10263;48.716;8.760;2023-11-22T00:25:17;7.13;;;4.43;;
20207;SDS011;10263;48.716;8.760;2023-11-22T00:27:44;8.63;;;4.57;;
20207;SDS011;10263;48.716;8.760;2023-11-22T00:30:12;11.60;;;4.30;;
20207;SDS011;10263;48.716;8.760;2023-11-22T00:32:39;6.27;;;3.80;;
20207;SDS011;10263;48.716;8.760;2023-11-22T00:35:06;7.13;;;3.73;;
20207;SDS011;10263;48.716;8.760;2023-11-22T00:37:35;2.00;;;1.80;;
20207;SDS011;10263;48.716;8.760;2023-11-22T00:40:03;2.03;;;1.70;;
20207;SDS011;10263;48.716;8.760;2023-11-22T00:42:35;1.73;;;1.53;;
20207;SDS011;10263;48.716;8.760;2023-11-22T00:45:05;2.20;;;1.80;;
20207;SDS011;10263;48.716;8.760;2023-11-22T00:47:32;1.77;;;1.57;;
20207;SDS011;10263;48.716;8.760;2023-11-22T00:49:59;1.90;;;1.63;;
20207;SDS011;10263;48.716;8.760;2023-11-22T00:52:26;2.13;;;1.50;;
20207;SDS011;10263;48.716;8.760;2023-11-22T00:54:53;2.00;;;1.80;;
20207;SDS011;10263;48.716;8.760;2023-11-22T00:57:21;2.60;;;1.97;;
20207;SDS011;10263;48.716;8.760;2023-11-22T00:59:48;3.27;;;2.10;;
20207;SDS011;10263;48.716;8.760;2023-11-22T01:02:16;2.90;;;1.97;;
20207;SDS011;10263;48.716;8.760;2023-11-22T01:04:43;2.30;;;2.10;;
20207;SDS011;10263;48.716;8.760;2023-11-22T01:07:10;4.07;;;2.30;;
20207;SDS011;10263;48.716;8.760;2023-11-22T01:09:36;3.37;;;2.57;;
20207;SDS011;10263;48.716;8.760;2023-11-22T01:12:04;2.73;;;2.37;;
20207;SDS011;10263;48.716;8.760;2023-11-22T01:14:33;4.90;;;3.17;;
20207;SDS011;10263;48.716;8.760;2023-11-22T01:17:00;3.63;;;2.80;;
20207;SDS011;10263;48.716;8.760;2023-11-22T01:19:27;3.23;;;2.77;;
20207;SDS011;10263;48.716;8.760;2023-11-22T01:21:54;5.47;;;3.10;;
20207;SDS011;10263;48.716;8.760;2023-11-22T01:24:21;3.70;;;3.13;;
20207;SDS011;10263;48.716;8.760;2023-11-22T01:26:48;5.07;;;3.50;;
20207;SDS011;10263;48.716;8.760;2023-11-22T01:29:15;4.87;;;3.47;;
20207;SDS011;10263;48.716;8.760;2023-11-22T01:31:43;4.00;;;3.60;;
20207;SDS011;10263;48.716;8.760;2023-11-22T01:34:10;3.67;;;3.00;;
20207;SDS011;10263;48.716;8.760;2023-11-22T01:36:39;3.70;;;2.90;;
20207;SDS011;10263;48.716;8.760;2023-11-22T01:39:08;3.70;;;3.23;;
20207;SDS011;10263;48.716;8.760;2023-11-22T01:41:37;4.57;;;2.90;;
20207;SDS011;10263;48.716;8.760;2023-11-22T01:44:04;2.57;;;2.37;;
20207;SDS011;10263;48.716;8.760;2023-11-22T01:46:31;3.43;;;2.60;;
20207;SDS011;10263;48.716;8.760;2023-11-22T01:49:01;3.60;;;2.63;;
20207;SDS011;10263;48.716;8.760;2023-11-22T01:51:28;3.77;;;3.00;;
20207;SDS011;10263;48.716;8.760;2023-11-22T01:53:56;4.43;;;2.90;;
20207;SDS011;10263;48.716;8.760;2023-11-22T01:56:26;3.77;;;3.00;;
20207;SDS011;10263;48.716;8.760;2023-11-22T01:58:55;5.47;;;2.90;;
20207;SDS011;10263;48.716;8.760;2023-11-22T02:01:25;4.30;;;3.27;;
20207;SDS011;10263;48.716;8.760;2023-11-22T02:03:52;4.13;;;3.03;;
20207;SDS011;10263;48.716;8.760;2023-11-22T02:06:21;3.27;;;2.87;;
20207;SDS011;10263;48.716;8.760;2023-11-22T02:08:48;3.53;;;2.40;;
20207;SDS011;10263;48.716;8.760;2023-11-22T02:11:16;4.07;;;2.80;;
20207;SDS011;10263;48.716;8.760;2023-11-22T02:13:47;3.17;;;2.63;;
20207;SDS011;10263;48.716;8.760;2023-11-22T02:16:14;4.53;;;2.80;;
20207;SDS011;10263;48.716;8.760;2023-11-22T02:18:42;4.33;;;2.93;;
20207;SDS011;10263;48.716;8.760;2023-11-22T02:21:10;5.10;;;3.00;;
20207;SDS011;10263;48.716;8.760;2023-11-22T02:23:38;3.80;;;3.10;;
20207;SDS011;10263;48.716;8.760;2023-11-22T02:26:05;4.07;;;2.43;;
20207;SDS011;10263;48.716;8.760;2023-11-22T02:28:32;3.30;;;2.50;;
20207;SDS011;10263;48.716;8.760;2023-11-22T02:30:59;3.80;;;2.63;;
20207;SDS011;10263;48.716;8.760;2023-11-22T02:33:26;3.90;;;2.90;;
20207;SDS011;10263;48.716;8.760;2023-11-22T02:35:53;5.00;;;2.93;;
20207;SDS011;10263;48.716;8.760;2023-11-22T02:38:20;4.53;;;3.30;;
20207;SDS011;10263;48.716;8.760;2023-11-22T02:40:48;3.73;;;2.90;;
20207;SDS011;10263;48.716;8.760;2023-11-22T02:43:15;3.63;;;2.83;;
20207;SDS011;10263;48.716;8.760;2023-11-22T02:45:42;4.23;;;2.73;;
20207;SDS011;10263;48.716;8.760;2023-11-22T02:48:09;3.57;;;2.90;;
20207;SDS011;10263;48.716;8.760;2023-11-22T02:50:36;3.90;;;3.13;;
20207;SDS011;10263;48.716;8.760;2023-11-22T02:53:04;3.03;;;2.50;;
20207;SDS011;10263;48.716;8.760;2023-11-22T02:55:35;4.50;;;3.33;;
20207;SDS011;10263;48.716;8.760;2023-11-22T02:58:03;4.27;;;3.50;;
20207;SDS011;10263;48.716;8.760;2023-11-22T03:00:30;5.57;;;3.47;;
20207;SDS011;10263;48.716;8.760;2023-11-22T03:02:59;4.37;;;2.90;;
20207;SDS011;10263;48.716;8.760;2023-11-22T03:05:28;5.07;;;3.33;;
20207;SDS011;10263;48.716;8.760;2023-11-22T03:07:55;4.40;;;3.30;;
20207;SDS011;10263;48.716;8.760;2023-11-22T03:10:22;3.70;;;3.10;;
20207;SDS011;10263;48.716;8.760;2023-11-22T03:12:48;4.23;;;2.83;;
20207;SDS011;10263;48.716;8.760;2023-11-22T03:15:16;5.57;;;3.40;;
20207;SDS011;10263;48.716;8.760;2023-11-22T03:17:43;6.13;;;3.80;;
20207;SDS011;10263;48.716;8.760;2023-11-22T03:20:10;4.90;;;3.77;;
20207;SDS011;10263;48.716;8.760;2023-11-22T03:22:37;5.37;;;3.70;;
20207;SDS011;10263;48.716;8.760;2023-11-22T03:25:04;3.87;;;2.83;;
20207;SDS011;10263;48.716;8.760;2023-11-22T03:27:35;7.40;;;3.60;;
20207;SDS011;10263;48.716;8.760;2023-11-22T03:30:02;4.13;;;3.23;;
20207;SDS011;10263;48.716;8.760;2023-11-22T03:32:30;4.70;;;3.50;;
20207;SDS011;10263;48.716;8.760;2023-11-22T03:35:02;5.83;;;4.03;;
20207;SDS011;10263;48.716;8.760;2023-11-22T03:37:29;5.77;;;3.53;;
20207;SDS011;10263;48.716;8.760;2023-11-22T03:39:56;5.40;;;3.73;;
20207;SDS011;10263;48.716;8.760;2023-11-22T03:42:23;5.23;;;3.57;;
20207;SDS011;10263;48.716;8.760;2023-11-22T03:44:50;6.17;;;3.57;;
20207;SDS011;10263;48.716;8.760;2023-11-22T03:47:17;5.63;;;3.83;;
20207;SDS011;10263;48.716;8.760;2023-11-22T03:49:46;5.03;;;3.87;;
20207;SDS011;10263;48.716;8.760;2023-11-22T03:52:14;6.03;;;3.90;;
20207;SDS011;10263;48.716;8.760;2023-11-22T03:54:41;6.80;;;4.03;;
20207;SDS011;10263;48.716;8.760;2023-11-22T03:57:08;7.40;;;4.13;;
20207;SDS011;10263;48.716;8.760;2023-11-22T03:59:35;3.70;;;3.13;;
20207;SDS011;10263;48.716;8.760;2023-11-22T04:02:01;6.90;;;4.23;;
20207;SDS011;10263;48.716;8.760;2023-11-22T04:04:28;4.67;;;3.43;;
20207;SDS011;10263;48.716;8.760;2023-11-22T04:06:57;4.90;;;3.53;;
20207;SDS011;10263;48.716;8.760;2023-11-22T04:09:24;6.37;;;3.63;;
20207;SDS011;10263;48.716;8.760;2023-11-22T04:11:51;4.97;;;3.50;;
20207;SDS011;10263;48.716;8.760;2023-11-22T04:14:18;5.73;;;3.80;;
20207;SDS011;10263;48.716;8.760;2023-11-22T04:16:46;5.23;;;3.53;;
20207;SDS011;10263;48.716;8.760;2023-11-22T04:19:13;5.57;;;3.90;;
20207;SDS011;10263;48.716;8.760;2023-11-22T04:21:40;6.30;;;4.53;;
20207;SDS011;10263;48.716;8.760;2023-11-22T04:24:08;6.03;;;4.47;;
20207;SDS011;10263;48.716;8.760;2023-11-22T04:26:37;4.80;;;3.60;;
20207;SDS011;10263;48.716;8.760;2023-11-22T04:29:04;6.20;;;3.63;;
20207;SDS011;10263;48.716;8.760;2023-11-22T04:31:31;5.37;;;4.27;;
20207;SDS011;10263;48.716;8.760;2023-11-22T04:33:58;6.27;;;4.10;;
20207;SDS011;10263;48.716;8.760;2023-11-22T04:36:25;7.03;;;3.97;;
20207;SDS011;10263;48.716;8.760;2023-11-22T04:38:52;4.97;;;3.70;;
20207;SDS011;10263;48.716;8.760;2023-11-22T04:41:20;5.80;;;4.20;;
20207;SDS011;10263;48.716;8.760;2023-11-22T04:43:47;5.07;;;3.80;;
20207;SDS011;10263;48.716;8.760;2023-11-22T04:46:14;6.80;;;4.17;;
20207;SDS011;10263;48.716;8.760;2023-11-22T04:48:41;5.73;;;3.90;;
20207;SDS011;10263;48.716;8.760;2023-11-22T04:51:10;5.33;;;3.73;;
20207;SDS011;10263;48.716;8.760;2023-11-22T04:53:37;4.43;;;3.40;;
20207;SDS011;10263;48.716;8.760;2023-11-22T04:56:04;5.33;;;3.57;;
20207;SDS011;10263;48.716;8.760;2023-11-22T04:58:33;4.60;;;3.60;;
20207;SDS011;10263;48.716;8.760;2023-11-22T05:01:00;4.27;;;3.17;;
20207;SDS011;10263;48.716;8.760;2023-11-22T05:03:28;7.20;;;3.60;;
20207;SDS011;10263;48.716;8.760;2023-11-22T05:05:54;4.27;;;3.47;;
20207;SDS011;10263;48.716;8.760;2023-11-22T05:08:22;5.90;;;4.20;;
20207;SDS011;10263;48.716;8.760;2023-11-22T05:10:50;4.53;;;3.17;;
20207;SDS011;10263;48.716;8.760;2023-11-22T05:13:17;4.67;;;3.77;;
20207;SDS011;10263;48.716;8.760;2023-11-22T05:15:45;5.87;;;4.03;;
20207;SDS011;10263;48.716;8.760;2023-11-22T05:18:12;5.10;;;3.30;;
20207;SDS011;10263;48.716;8.760;2023-11-22T05:20:39;5.50;;;3.93;;
20207;SDS011;10263;48.716;8.760;2023-11-22T05:23:06;4.83;;;3.60;;
20207;SDS011;10263;48.716;8.760;2023-11-22T05:25:33;4.43;;;3.43;;
20207;SDS011;10263;48.716;8.760;2023-11-22T05:28:01;4.43;;;3.20;;
20207;SDS011;10263;48.716;8.760;2023-11-22T05:30:28;6.33;;;3.00;;
20207;SDS011;10263;48.716;8.760;2023-11-22T05:32:57;3.77;;;3.03;;
20207;SDS011;10263;48.716;8.760;2023-11-22T05:35:24;5.83;;;3.23;;
20207;SDS011;10263;48.716;8.760;2023-11-22T05:37:51;4.80;;;3.17;;
20207;SDS011;10263;48.716;8.760;2023-11-22T05:40:18;4.63;;;3.47;;
20207;SDS011;10263;48.716;8.760;2023-11-22T05:42:45;3.77;;;2.90;;
20207;SDS011;10263;48.716;8.760;2023-11-22T05:45:12;5.53;;;3.27;;
20207;SDS011;10263;48.716;8.760;2023-11-22T05:47:39;4.67;;;3.10;;
20207;SDS011;10263;48.716;8.760;2023-11-22T05:50:09;5.80;;;3.30;;
20207;SDS011;10263;48.716;8.760;2023-11-22T05:52:36;4.03;;;3.00;;
20207;SDS011;10263;48.716;8.760;2023-11-22T05:55:03;3.97;;;3.30;;
20207;SDS011;10263;48.716;8.760;2023-11-22T05:57:30;4.57;;;3.40;;
20207;SDS011;10263;48.716;8.760;2023-11-22T05:59:57;7.77;;;4.93;;
20207;SDS011;10263;48.716;8.760;2023-11-22T06:02:24;13.63;;;9.20;;
20207;SDS011;10263;48.716;8.760;2023-11-22T06:04:50;5.13;;;4.23;;
20207;SDS011;10263;48.716;8.760;2023-11-22T06:07:19;4.77;;;3.23;;
20207;SDS011;10263;48.716;8.760;2023-11-22T06:09:45;4.60;;;3.20;;
20207;SDS011;10263;48.716;8.760;2023-11-22T06:12:12;5.40;;;3.80;;
20207;SDS011;10263;48.716;8.760;2023-11-22T06:14:39;5.70;;;3.87;;
20207;SDS011;10263;48.716;8.760;2023-11-22T06:17:06;4.63;;;3.60;;
20207;SDS011;10263;48.716;8.760;2023-11-22T06:19:33;3.53;;;3.20;;
20207;SDS011;10263;48.716;8.760;2023-11-22T06:22:00;5.23;;;3.07;;
20207;SDS011;10263;48.716;8.760;2023-11-22T06:24:29;3.60;;;3.10;;
20207;SDS011;10263;48.716;8.760;2023-11-22T06:26:56;4.63;;;2.73;;
20207;SDS011;10263;48.716;8.760;2023-11-22T06:29:23;5.17;;;4.63;;
20207;SDS011;10263;48.716;8.760;2023-11-22T06:31:49;4.47;;;3.30;;
20207;SDS011;10263;48.716;8.760;2023-11-22T06:34:16;3.80;;;3.07;;
20207;SDS011;10263;48.716;8.760;2023-11-22T06:36:43;4.63;;;3.20;;
20207;SDS011;10263;48.716;8.760;2023-11-22T06:39:10;3.13;;;2.57;;
20207;SDS011;10263;48.716;8.760;2023-11-22T06:41:40;4.27;;;2.97;;
20207;SDS011;10263;48.716;8.760;2023-11-22T06:44:07;4.00;;;2.97;;
20207;SDS011;10263;48.716;8.760;2023-11-22T06:46:35;5.93;;;3.20;;
20207;SDS011;10263;48.716;8.760;2023-11-22T06:49:02;4.73;;;3.00;;
20207;SDS011;10263;48.716;8.760;2023-11-22T06:51:30;6.87;;;3.17;;
20207;SDS011;10263;48.716;8.760;2023-11-22T06:53:57;4.00;;;2.97;;
20207;SDS011;10263;48.716;8.760;2023-11-22T06:56:24;4.33;;;3.40;;
20207;SDS011;10263;48.716;8.760;2023-11-22T06:58:52;4.67;;;3.00;;
20207;SDS011;10263;48.716;8.760;2023-11-22T07:01:22;3.80;;;2.77;;
20207;SDS011;10263;48.716;8.760;2023-11-22T07:03:50;5.10;;;3.43;;
20207;SDS011;10263;48.716;8.760;2023-11-22T07:06:18;4.73;;;3.10;;
20207;SDS011;10263;48.716;8.760;2023-11-22T07:08:47;4.13;;;3.03;;
20207;SDS011;10263;48.716;8.760;2023-11-22T07:11:21;5.10;;;3.13;;
20207;SDS011;10263;48.716;8.760;2023-11-22T07:13:49;3.60;;;3.00;;
20207;SDS011;10263;48.716;8.760;2023-11-22T07:16:18;4.60;;;3.13;;
20207;SDS011;10263;48.716;8.760;2023-11-22T07:18:45;5.20;;;3.40;;
20207;SDS011;10263;48.716;8.760;2023-11-22T07:21:12;4.73;;;3.03;;
20207;SDS011;10263;48.716;8.760;2023-11-22T07:23:39;4.30;;;3.20;;
20207;SDS011;10263;48.716;8.760;2023-11-22T07:26:06;5.70;;;3.20;;
20207;SDS011;10263;48.716;8.760;2023-11-22T07:28:33;3.83;;;3.13;;
20207;SDS011;10263;48.716;8.760;2023-11-22T07:31:00;4.03;;;3.03;;
20207;SDS011;10263;48.716;8.760;2023-11-22T07:33:29;4.03;;;3.30;;
20207;SDS011;10263;48.716;8.760;2023-11-22T07:35:56;4.60;;;3.33;;
20207;SDS011;10263;48.716;8.760;2023-11-22T07:38:23;4.87;;;3.47;;
20207;SDS011;10263;48.716;8.760;2023-11-22T07:40:51;7.63;;;3.20;;
20207;SDS011;10263;48.716;8.760;2023-11-22T07:43:17;5.23;;;3.80;;
20207;SDS011;10263;48.716;8.760;2023-11-22T07:45:44;5.47;;;3.60;;
20207;SDS011;10263;48.716;8.760;2023-11-22T07:48:12;3.50;;;2.97;;
20207;SDS011;10263;48.716;8.760;2023-11-22T07:50:40;4.07;;;3.20;;
20207;SDS011;10263;48.716;8.760;2023-11-22T07:53:09;4.47;;;2.83;;
20207;SDS011;10263;48.716;8.760;2023-11-22T07:55:36;4.83;;;3.50;;
20207;SDS011;10263;48.716;8.760;2023-11-22T07:58:03;6.03;;;3.00;;
20207;SDS011;10263;48.716;8.760;2023-11-22T08:00:32;3.13;;;2.47;;
20207;SDS011;10263;48.716;8.760;2023-11-22T08:02:59;4.77;;;2.70;;
20207;SDS011;10263;48.716;8.760;2023-11-22T08:05:28;4.07;;;2.60;;
20207;SDS011;10263;48.716;8.760;2023-11-22T08:08:01;4.17;;;3.07;;
20207;SDS011;10263;48.716;8.760;2023-11-22T08:10:31;4.53;;;2.60;;
20207;SDS011;10263;48.716;8.760;2023-11-22T08:12:59;4.33;;;2.40;;
20207;SDS011;10263;48.716;8.760;2023-11-22T08:15:27;3.07;;;2.40;;
20207;SDS011;10263;48.716;8.760;2023-11-22T08:17:54;3.37;;;2.00;;
20207;SDS011;10263;48.716;8.760;2023-11-22T08:20:21;3.57;;;2.43;;
20207;SDS011;10263;48.716;8.760;2023-11-22T08:22:48;2.83;;;2.03;;
20207;SDS011;10263;48.716;8.760;2023-11-22T08:25:17;3.90;;;2.10;;
20207;SDS011;10263;48.716;8.760;2023-11-22T08:27:44;3.10;;;2.40;;
20207;SDS011;10263;48.716;8.760;2023-11-22T08:30:11;3.10;;;2.40;;
20207;SDS011;10263;48.716;8.760;2023-11-22T08:32:41;4.00;;;2.60;;
20207;SDS011;10263;48.716;8.760;2023-11-22T08:35:09;3.40;;;2.20;;
20207;SDS011;10263;48.716;8.760;2023-11-22T08:37:39;2.67;;;1.83;;
20207;SDS011;10263;48.716;8.760;2023-11-22T08:40:07;3.33;;;2.07;;
20207;SDS011;10263;48.716;8.760;2023-11-22T08:42:37;2.53;;;1.90;;
20207;SDS011;10263;48.716;8.760;2023-11-22T08:45:06;2.83;;;1.73;;
20207;SDS011;10263;48.716;8.760;2023-11-22T08:47:34;2.77;;;2.00;;
20207;SDS011;10263;48.716;8.760;2023-11-22T08:50:01;3.70;;;2.37;;
20207;SDS011;10263;48.716;8.760;2023-11-22T08:52:30;2.80;;;1.90;;
20207;SDS011;10263;48.716;8.760;2023-11-22T08:54:57;2.73;;;2.37;;
20207;SDS011;10263;48.716;8.760;2023-11-22T08:57:25;3.23;;;2.40;;
20207;SDS011;10263;48.716;8.760;2023-11-22T08:59:53;2.83;;;2.20;;
20207;SDS011;10263;48.716;8.760;2023-11-22T09:02:21;2.83;;;2.27;;
20207;SDS011;10263;48.716;8.760;2023-11-22T09:04:48;4.07;;;3.07;;
20207;SDS011;10263;48.716;8.760;2023-11-22T09:07:14;3.50;;;2.50;;
20207;SDS011;10263;48.716;8.760;2023-11-22T09:09:41;2.93;;;2.23;;
20207;SDS011;10263;48.716;8.760;2023-11-22T09:12:08;4.07;;;2.43;;
20207;SDS011;10263;48.716;8.760;2023-11-22T09:14:38;4.33;;;2.67;;
20207;SDS011;10263;48.716;8.760;2023-11-22T09:17:07;2.97;;;2.07;;
20207;SDS011;10263;48.716;8.760;2023-11-22T09:19:34;4.13;;;2.60;;
20207;SDS011;10263;48.716;8.760;2023-11-22T09:22:02;6.10;;;2.60;;
20207;SDS011;10263;48.716;8.760;2023-11-22T09:24:31;4.30;;;2.37;;
20207;SDS011;10263;48.716;8.760;2023-11-22T09:26:58;5.23;;;2.87;;
20207;SDS011;10263;48.716;8.760;2023-11-22T09:29:30;3.50;;;2.40;;
20207;SDS011;10263;48.716;8.760;2023-11-22T09:31:58;2.90;;;2.03;;
20207;SDS011;10263;48.716;8.760;2023-11-22T09:34:27;3.27;;;2.67;;
20207;SDS011;10263;48.716;8.760;2023-11-22T09:36:54;4.07;;;2.67;;
20207;SDS011;10263;48.716;8.760;2023-11-22T09:39:21;2.70;;;2.10;;
20207;SDS011;10263;48.716;8.760;2023-11-22T09:41:50;4.73;;;2.73;;
20207;SDS011;10263;48.716;8.760;2023-11-22T09:44:18;3.30;;;2.30;;
20207;SDS011;10263;48.716;8.760;2023-11-22T09:46:47;3.43;;;2.40;;
20207;SDS011;10263;48.716;8.760;2023-11-22T09:49:19;5.27;;;2.60;;
20207;SDS011;10263;48.716;8.760;2023-11-22T09:51:49;3.00;;;2.30;;
20207;SDS011;10263;48.716;8.760;2023-11-22T09:54:20;2.57;;;2.20;;
20207;SDS011;10263;48.716;8.760;2023-11-22T09:56:56;3.40;;;2.40;;
20207;SDS011;10263;48.716;8.760;2023-11-22T09:59:26;3.93;;;2.70;;
20207;SDS011;10263;48.716;8.760;2023-11-22T10:01:55;4.10;;;2.60;;
20207;SDS011;10263;48.716;8.760;2023-11-22T10:04:24;3.37;;;2.80;;
20207;SDS011;10263;48.716;8.760;2023-11-22T10:06:55;4.03;;;2.83;;
20207;SDS011;10263;48.716;8.760;2023-11-22T10:09:24;3.37;;;2.17;;
20207;SDS011;10263;48.716;8.760;2023-11-22T10:11:57;3.20;;;2.40;;
20207;SDS011;10263;48.716;8.760;2023-11-22T10:14:24;2.47;;;2.20;;
20207;SDS011;10263;48.716;8.760;2023-11-22T10:16:58;3.10;;;2.40;;
20207;SDS011;10263;48.716;8.760;2023-11-22T10:19:25;3.73;;;2.53;;
20207;SDS011;10263;48.716;8.760;2023-11-22T10:22:03;4.13;;;2.60;;
20207;SDS011;10263;48.716;8.760;2023-11-22T10:24:31;4.37;;;2.60;;
20207;SDS011;10263;48.716;8.760;2023-11-22T10:26:58;3.93;;;2.70;;
20207;SDS011;10263;48.716;8.760;2023-11-22T10:29:26;2.90;;;2.43;;
20207;SDS011;10263;48.716;8.760;2023-11-22T10:31:53;3.87;;;2.77;;
20207;SDS011;10263;48.716;8.760;2023-11-22T10:34:20;5.83;;;3.07;;
20207;SDS011;10263;48.716;8.760;2023-11-22T10:36:48;5.10;;;2.83;;
20207;SDS011;10263;48.716;8.760;2023-11-22T10:39:19;4.73;;;2.83;;
20207;SDS011;10263;48.716;8.760;2023-11-22T10:41:46;4.17;;;2.97;;
20207;SDS011;10263;48.716;8.760;2023-11-22T10:44:15;2.90;;;2.23;;
20207;SDS011;10263;48.716;8.760;2023-11-22T10:46:45;4.23;;;2.50;;
20207;SDS011;10263;48.716;8.760;2023-11-22T10:49:15;3.83;;;3.17;;
20207;SDS011;10263;48.716;8.760;2023-11-22T10:51:43;4.53;;;2.87;;
20207;SDS011;10263;48.716;8.760;2023-11-22T10:54:12;2.93;;;2.63;;
20207;SDS011;10263;48.716;8.760;2023-11-22T10:56:41;4.03;;;2.77;;
20207;SDS011;10263;48.716;8.760;2023-11-22T10:59:13;2.97;;;2.63;;
20207;SDS011;10263;48.716;8.760;2023-11-22T11:01:43;3.83;;;2.90;;
20207;SDS011;10263;48.716;8.760;2023-11-22T11:04:15;5.80;;;3.03;;
20207;SDS011;10263;48.716;8.760;2023-11-22T11:06:46;4.27;;;3.10;;
20207;SDS011;10263;48.716;8.760;2023-11-22T11:09:17;4.33;;;2.90;;
20207;SDS011;10263;48.716;8.760;2023-11-22T11:11:51;5.20;;;2.77;;
20207;SDS011;10263;48.716;8.760;2023-11-22T11:14:17;4.80;;;2.77;;
20207;SDS011;10263;48.716;8.760;2023-11-22T11:16:44;3.73;;;2.83;;
20207;SDS011;10263;48.716;8.760;2023-11-22T11:19:15;3.87;;;3.20;;
20207;SDS011;10263;48.716;8.760;2023-11-22T11:21:43;5.13;;;3.30;;
20207;SDS011;10263;48.716;8.760;2023-11-22T11:24:10;4.63;;;3.00;;
20207;SDS011;10263;48.716;8.760;2023-11-22T11:26:37;4.53;;;3.00;;
20207;SDS011;10263;48.716;8.760;2023-11-22T11:29:05;3.93;;;2.87;;
20207;SDS011;10263;48.716;8.760;2023-11-22T11:31:33;4.27;;;3.20;;
20207;SDS011;10263;48.716;8.760;2023-11-22T11:34:06;3.67;;;3.07;;
20207;SDS011;10263;48.716;8.760;2023-11-22T11:36:33;4.30;;;2.83;;
20207;SDS011;10263;48.716;8.760;2023-11-22T11:39:05;3.77;;;3.17;;
20207;SDS011;10263;48.716;8.760;2023-11-22T11:41:34;4.87;;;3.90;;
20207;SDS011;10263;48.716;8.760;2023-11-22T11:44:02;3.77;;;3.30;;
20207;SDS011;10263;48.716;8.760;2023-11-22T11:46:35;5.07;;;3.53;;
20207;SDS011;10263;48.716;8.760;2023-11-22T11:49:06;5.13;;;3.63;;
20207;SDS011;10263;48.716;8.760;2023-11-22T11:51:34;5.77;;;3.90;;
20207;SDS011;10263;48.716;8.760;2023-11-22T11:54:01;4.30;;;3.30;;
20207;SDS011;10263;48.716;8.760;2023-11-22T11:56:28;5.40;;;3.40;;
20207;SDS011;10263;48.716;8.760;2023-11-22T11:58:57;5.50;;;4.03;;
20207;SDS011;10263;48.716;8.760;2023-11-22T12:01:24;4.27;;;3.43;;
20207;SDS011;10263;48.716;8.760;2023-11-22T12:03:56;4.90;;;3.20;;
20207;SDS011;10263;48.716;8.760;2023-11-22T12:06:22;5.10;;;3.00;;
20207;SDS011;10263;48.716;8.760;2023-11-22T12:08:49;4.03;;;3.60;;
20207;SDS011;10263;48.716;8.760;2023-11-22T12:11:17;8.43;;;3.47;;
20207;SDS011;10263;48.716;8.760;2023-11-22T12:13:44;6.73;;;4.10;;
20207;SDS011;10263;48.716;8.760;2023-11-22T12:16:14;5.00;;;3.47;;
20207;SDS011;10263;48.716;8.760;2023-11-22T12:18:42;4.60;;;3.70;;
20207;SDS011;10263;48.716;8.760;2023-11-22T12:21:11;4.93;;;3.30;;
20207;SDS011;10263;48.716;8.760;2023-11-22T12:23:39;5.00;;;3.50;;
20207;SDS011;10263;48.716;8.760;2023-11-22T12:26:09;5.13;;;3.80;;
20207;SDS011;10263;48.716;8.760;2023-11-22T12:28:38;5.73;;;3.80;;
20207;SDS011;10263;48.716;8.760;2023-11-22T12:31:06;5.07;;;3.47;;
20207;SDS011;10263;48.716;8.760;2023-11-22T12:33:34;4.27;;;3.10;;
20207;SDS011;10263;48.716;8.760;2023-11-22T12:36:01;6.90;;;3.27;;
20207;SDS011;10263;48.716;8.760;2023-11-22T12:38:30;5.40;;;3.87;;
20207;SDS011;10263;48.716;8.760;2023-11-22T12:40:56;6.87;;;3.83;;
20207;SDS011;10263;48.716;8.760;2023-11-22T12:43:23;5.97;;;3.73;;
20207;SDS011;10263;48.716;8.760;2023-11-22T12:45:57;5.73;;;3.43;;
20207;SDS011;10263;48.716;8.760;2023-11-22T12:48:26;4.90;;;3.33;;
20207;SDS011;10263;48.716;8.760;2023-11-22T12:50:55;4.40;;;3.30;;
20207;SDS011;10263;48.716;8.760;2023-11-22T12:53:22;4.00;;;3.03;;
20207;SDS011;10263;48.716;8.760;2023-11-22T12:55:52;5.97;;;3.33;;
20207;SDS011;10263;48.716;8.760;2023-11-22T12:58:20;5.00;;;3.43;;
20207;SDS011;10263;48.716;8.760;2023-11-22T13:00:48;5.53;;;3.10;;
20207;SDS011;10263;48.716;8.760;2023-11-22T13:03:16;4.33;;;3.00;;
20207;SDS011;10263;48.716;8.760;2023-11-22T13:05:43;4.87;;;3.10;;
20207;SDS011;10263;48.716;8.760;2023-11-22T13:08:10;4.97;;;3.37;;
20207;SDS011;10263;48.716;8.760;2023-11-22T13:10:38;4.77;;;3.13;;
20207;SDS011;10263;48.716;8.760;2023-11-22T13:13:06;9.00;;;3.10;;
20207;SDS011;10263;48.716;8.760;2023-11-22T13:15:35;3.60;;;3.00;;
20207;SDS011;10263;48.716;8.760;2023-11-22T13:18:02;4.10;;;3.20;;
20207;SDS011;10263;48.716;8.760;2023-11-22T13:20:31;6.27;;;3.93;;
20207;SDS011;10263;48.716;8.760;2023-11-22T13:22:58;4.37;;;3.50;;
20207;SDS011;10263;48.716;8.760;2023-11-22T13:25:26;4.13;;;3.30;;
20207;SDS011;10263;48.716;8.760;2023-11-22T13:27:53;4.53;;;3.60;;
20207;SDS011;10263;48.716;8.760;2023-11-22T13:30:22;3.97;;;3.30;;
20207;SDS011;10263;48.716;8.760;2023-11-22T13:32:50;4.53;;;3.77;;
20207;SDS011;10263;48.716;8.760;2023-11-22T13:35:17;10.00;;;3.83;;
20207;SDS011;10263;48.716;8.760;2023-11-22T13:37:44;8.67;;;3.90;;
20207;SDS011;10263;48.716;8.760;2023-11-22T13:40:13;4.80;;;3.40;;
20207;SDS011;10263;48.716;8.760;2023-11-22T13:42:41;7.20;;;3.50;;
20207;SDS011;10263;48.716;8.760;2023-11-22T13:45:09;7.13;;;4.57;;
20207;SDS011;10263;48.716;8.760;2023-11-22T13:47:41;6.77;;;4.43;;
20207;SDS011;10263;48.716;8.760;2023-11-22T13:50:09;5.50;;;3.40;;
20207;SDS011;10263;48.716;8.760;2023-11-22T13:52:36;6.73;;;3.73;;
20207;SDS011;10263;48.716;8.760;2023-11-22T13:55:04;5.80;;;3.67;;
20207;SDS011;10263;48.716;8.760;2023-11-22T13:57:35;5.73;;;4.40;;
20207;SDS011;10263;48.716;8.760;2023-11-22T14:00:02;6.83;;;4.60;;
20207;SDS011;10263;48.716;8.760;2023-11-22T14:02:32;7.13;;;4.30;;
20207;SDS011;10263;48.716;8.760;2023-11-22T14:05:00;3.23;;;2.93;;
20207;SDS011;10263;48.716;8.760;2023-11-22T14:07:27;4.43;;;3.43;;
20207;SDS011;10263;48.716;8.760;2023-11-22T14:09:54;5.10;;;3.50;;
20207;SDS011;10263;48.716;8.760;2023-11-22T14:12:21;5.37;;;3.80;;
20207;SDS011;10263;48.716;8.760;2023-11-22T14:14:48;6.77;;;3.93;;
20207;SDS011;10263;48.716;8.760;2023-11-22T14:17:16;5.93;;;3.47;;
20207;SDS011;10263;48.716;8.760;2023-11-22T14:19:46;5.30;;;4.10;;
20207;SDS011;10263;48.716;8.760;2023-11-22T14:22:14;6.17;;;3.73;;
20207;SDS011;10263;48.716;8.760;2023-11-22T14:24:42;5.57;;;3.80;;
20207;SDS011;10263;48.716;8.760;2023-11-22T14:27:10;5.67;;;3.60;;
20207;SDS011;10263;48.716;8.760;2023-11-22T14:29:37;5.13;;;3.67;;
20207;SDS011;10263;48.716;8.760;2023-11-22T14:32:04;6.47;;;3.90;;
20207;SDS011;10263;48.716;8.760;2023-11-22T14:34:32;4.63;;;3.70;;
20207;SDS011;10263;48.716;8.760;2023-11-22T14:36:59;4.70;;;3.60;;
20207;SDS011;10263;48.716;8.760;2023-11-22T14:39:27;6.20;;;3.53;;
20207;SDS011;10263;48.716;8.760;2023-11-22T14:41:54;6.40;;;4.50;;
20207;SDS011;10263;48.716;8.760;2023-11-22T14:44:21;19.30;;;11.27;;
20207;SDS011;10263;48.716;8.760;2023-11-22T14:46:49;7.47;;;5.30;;
20207;SDS011;10263;48.716;8.760;2023-11-22T14:49:16;5.00;;;4.10;;
20207;SDS011;10263;48.716;8.760;2023-11-22T14:51:44;6.07;;;4.50;;